Time;durP1;ratioP1;P1;durP2;ratioP2;P2;SDS_P1;SDS_P2;PMS_P1;PMS_P2;Temp;Humidity;BMP_temperature;BMP_pressure;BME280_temperature;BME280_humidity;BME280_pressure;Samples;Min_cycle;Max_cycle;Signal;HPM_P1;HPM_P2
2021/12/03 00:00:30;;;;;;;14.00;9.20;;;-0.60;99.90;;;;;;5101468;28;20409;-81
2021/12/03 00:02:56;;;;;;;95.00;33.13;;;-0.60;99.90;;;;;;5102734;28;20195;-82
2021/12/03 00:05:22;;;;;;;39.10;17.57;;;-0.60;99.90;;;;;;5103696;28;20412;-82
2021/12/03 00:07:48;;;;;;;34.97;17.70;;;-0.60;99.90;;;;;;5102677;28;20184;-82
2021/12/03 00:10:16;;;;;;;33.30;17.90;;;-0.60;99.90;;;;;;5103981;28;20829;-82
2021/12/03 00:12:42;;;;;;;21.73;10.83;;;-0.50;99.90;;;;;;5105695;28;20500;-81
2021/12/03 00:15:09;;;;;;;10.00;7.13;;;0.70;99.90;;;;;;5105319;28;20943;-82
2021/12/03 00:17:35;;;;;;;13.73;9.37;;;-0.50;99.90;;;;;;5105313;28;20418;-82
2021/12/03 00:20:04;;;;;;;10.23;7.33;;;-0.50;99.90;;;;;;5101780;28;20748;-81
2021/12/03 00:22:29;;;;;;;15.70;9.70;;;-0.60;99.90;;;;;;5100985;28;20453;-81
2021/12/03 00:24:55;;;;;;;21.13;13.60;;;-0.60;99.90;;;;;;5102048;28;20402;-82
2021/12/03 00:27:20;;;;;;;23.97;11.80;;;-0.60;99.90;;;;;;5099904;28;20187;-81
2021/12/03 00:29:46;;;;;;;34.93;16.43;;;-0.50;99.90;;;;;;5103920;28;20198;-81
2021/12/03 00:32:12;;;;;;;54.23;18.77;;;-0.50;99.90;;;;;;5104128;28;20168;-81
2021/12/03 00:34:37;;;;;;;28.90;13.93;;;-0.50;99.90;;;;;;5104218;28;20717;-82
2021/12/03 00:37:03;;;;;;;30.00;13.47;;;-0.50;99.90;;;;;;5104088;28;20195;-82
2021/12/03 00:39:29;;;;;;;22.83;12.23;;;-0.50;99.90;;;;;;5105835;28;20169;-82
2021/12/03 00:41:59;;;;;;;21.43;10.50;;;-0.50;99.90;;;;;;5104269;28;20175;-82
2021/12/03 00:44:26;;;;;;;21.83;11.47;;;-0.50;99.90;;;;;;5104612;28;20707;-81
2021/12/03 00:46:52;;;;;;;13.67;7.83;;;-0.50;99.90;;;;;;5105820;28;20496;-82
2021/12/03 00:49:18;;;;;;;14.67;8.50;;;-0.40;99.90;;;;;;5104783;28;20983;-82
2021/12/03 00:51:44;;;;;;;18.03;9.47;;;-0.50;99.90;;;;;;5104209;28;20429;-81
2021/12/03 00:54:10;;;;;;;21.33;10.87;;;-0.50;99.90;;;;;;5105605;28;20445;-82
2021/12/03 00:56:35;;;;;;;31.80;15.00;;;-0.30;99.90;;;;;;5104716;28;20658;-81
2021/12/03 00:59:01;;;;;;;8.47;6.40;;;-0.50;99.90;;;;;;5104139;28;20176;-81
2021/12/03 01:01:26;;;;;;;11.70;7.20;;;-0.50;99.90;;;;;;5105760;28;20172;-82
2021/12/03 01:03:52;;;;;;;22.63;11.63;;;-0.40;99.90;;;;;;5105554;28;20192;-81
2021/12/03 01:06:18;;;;;;;8.57;5.57;;;-0.50;99.90;;;;;;5105773;28;20202;-82
2021/12/03 01:08:44;;;;;;;9.57;5.57;;;0.90;99.90;;;;;;5105556;28;20496;-81
2021/12/03 01:11:11;;;;;;;11.73;6.77;;;1.00;99.90;;;;;;5105383;28;20199;-81
2021/12/03 01:13:39;;;;;;;7.67;5.37;;;1.80;99.90;;;;;;5104468;28;20198;-82
2021/12/03 01:16:06;;;;;;;17.17;9.93;;;-0.50;99.90;;;;;;5105902;28;20532;-82
2021/12/03 01:18:33;;;;;;;15.40;8.37;;;-0.40;99.90;;;;;;5104137;28;20514;-82
2021/12/03 01:20:59;;;;;;;8.67;6.17;;;-0.50;99.90;;;;;;5105809;28;20432;-82
2021/12/03 01:23:25;;;;;;;13.17;7.30;;;;;;;;;;5105447;28;20462;-82
2021/12/03 01:25:51;;;;;;;8.00;4.97;;;-0.40;99.90;;;;;;5105234;28;20420;-82
2021/12/03 01:28:17;;;;;;;9.47;6.30;;;-0.40;99.90;;;;;;5107782;28;20422;-82
2021/12/03 01:30:44;;;;;;;7.90;5.17;;;-0.50;99.90;;;;;;5104755;28;20176;-82
2021/12/03 01:33:10;;;;;;;15.63;7.53;;;-0.60;99.90;;;;;;5103460;28;20440;-82
2021/12/03 01:35:37;;;;;;;12.03;6.00;;;-0.60;99.90;;;;;;5103408;28;20485;-82
2021/12/03 01:38:05;;;;;;;8.83;5.67;;;1.10;99.90;;;;;;5103884;28;20457;-82
2021/12/03 01:40:33;;;;;;;7.03;5.10;;;-0.20;99.90;;;;;;5102759;28;20429;-82
2021/12/03 01:43:01;;;;;;;6.10;4.60;;;0.60;99.90;;;;;;5104159;28;20434;-82
2021/12/03 01:45:30;;;;;;;6.57;4.97;;;1.40;99.90;;;;;;5103156;28;20455;-82
2021/12/03 01:47:59;;;;;;;7.10;4.77;;;-0.50;99.90;;;;;;5105397;28;20758;-82
2021/12/03 01:50:30;;;;;;;5.90;4.90;;;-0.50;99.90;;;;;;5104806;28;20437;-82
2021/12/03 01:52:57;;;;;;;10.97;5.90;;;-0.50;99.90;;;;;;5105758;28;20546;-82
2021/12/03 01:55:23;;;;;;;7.13;5.20;;;-0.50;99.90;;;;;;5103862;28;20465;-82
2021/12/03 01:57:49;;;;;;;5.80;4.70;;;-0.50;99.90;;;;;;5105091;28;20416;-82
2021/12/03 02:00:32;;;;;;;14.30;7.80;;;-0.50;99.90;;;;;;5104631;28;20432;-82
2021/12/03 02:02:58;;;;;;;23.30;10.43;;;-0.60;99.90;;;;;;5103888;28;20494;-82
2021/12/03 02:05:25;;;;;;;27.17;12.50;;;0.80;99.90;;;;;;5103212;28;20416;-82
2021/12/03 02:07:51;;;;;;;23.30;10.83;;;-0.50;99.90;;;;;;5105469;28;20817;-82
2021/12/03 02:10:19;;;;;;;10.17;6.07;;;-0.50;99.90;;;;;;5103363;28;20418;-83
2021/12/03 02:12:46;;;;;;;14.57;8.43;;;-0.60;99.90;;;;;;5103475;28;20442;-83
2021/12/03 02:15:12;;;;;;;12.27;8.17;;;-0.60;99.90;;;;;;5103304;28;20456;-82
2021/12/03 02:17:38;;;;;;;22.30;10.53;;;-0.60;99.90;;;;;;5103646;28;20922;-81
2021/12/03 02:20:08;;;;;;;36.00;15.57;;;-0.70;99.90;;;;;;5103800;28;20418;-81
2021/12/03 02:22:34;;;;;;;15.30;7.60;;;;;;;;;;5103958;28;20407;-81
2021/12/03 02:25:00;;;;;;;17.73;8.97;;;;;;;;;;5104202;28;20409;-81
2021/12/03 02:27:26;;;;;;;17.47;8.93;;;-0.80;99.90;;;;;;5104858;28;20403;-81
2021/12/03 02:29:52;;;;;;;16.90;8.13;;;;;;;;;;5105635;28;20414;-81
2021/12/03 02:32:18;;;;;;;15.20;7.07;;;;;;;;;;5105033;28;20584;-81
2021/12/03 02:34:44;;;;;;;16.63;8.13;;;-0.90;99.90;;;;;;5104843;28;20429;-81
2021/12/03 02:37:10;;;;;;;37.67;13.87;;;;;;;;;;5106490;28;20462;-81
2021/12/03 02:39:35;;;;;;;20.73;8.93;;;-0.90;99.90;;;;;;5106328;28;20236;-81
2021/12/03 02:42:01;;;;;;;62.37;21.77;;;-0.90;99.90;;;;;;5103746;28;20481;-81
2021/12/03 02:44:27;;;;;;;15.40;8.20;;;-0.90;99.90;;;;;;5103887;28;20674;-81
2021/12/03 02:46:53;;;;;;;22.43;9.63;;;;;;;;;;5102992;28;20186;-81
2021/12/03 02:49:19;;;;;;;19.83;10.03;;;;;;;;;;5103887;28;20178;-81
2021/12/03 02:51:45;;;;;;;17.00;8.80;;;;;;;;;;5103357;28;20407;-81
2021/12/03 02:54:11;;;;;;;26.77;10.83;;;-0.90;99.90;;;;;;5103692;28;20485;-81
2021/12/03 02:56:37;;;;;;;14.10;7.27;;;-0.90;99.90;;;;;;5102549;28;20613;-81
2021/12/03 02:59:03;;;;;;;10.57;6.17;;;-0.90;99.90;;;;;;5104652;28;20430;-81
2021/12/03 03:01:30;;;;;;;9.33;5.43;;;-0.20;99.90;;;;;;5104003;28;20175;-81
2021/12/03 03:03:56;;;;;;;29.57;10.73;;;;;;;;;;5102409;28;20468;-81
2021/12/03 03:06:22;;;;;;;19.73;9.53;;;-0.90;99.90;;;;;;5103299;28;20464;-81
2021/12/03 03:08:48;;;;;;;13.43;7.40;;;1.10;99.90;;;;;;5102770;28;20413;-81
2021/12/03 03:11:16;;;;;;;11.60;6.07;;;-0.90;99.90;;;;;;5102630;28;20178;-81
2021/12/03 03:13:42;;;;;;;14.77;8.17;;;-0.90;99.90;;;;;;5102535;28;20203;-81
2021/12/03 03:16:08;;;;;;;14.37;7.47;;;;;;;;;;5102265;28;20877;-81
2021/12/03 03:18:35;;;;;;;18.93;9.00;;;-0.90;99.90;;;;;;5102520;28;20794;-81
2021/12/03 03:21:05;;;;;;;19.03;8.50;;;-0.90;99.90;;;;;;5103122;28;20413;-81
2021/12/03 03:23:32;;;;;;;17.37;8.23;;;-0.80;99.90;;;;;;5102843;28;20476;-82
2021/12/03 03:25:58;;;;;;;28.93;9.80;;;-0.80;99.90;;;;;;5103213;28;20467;-82
2021/12/03 03:28:24;;;;;;;17.73;7.77;;;-0.80;99.90;;;;;;5106106;28;20409;-81
2021/12/03 03:30:53;;;;;;;6.57;4.97;;;2.30;99.90;;;;;;5101822;28;20174;-81
2021/12/03 03:33:19;;;;;;;14.20;6.77;;;;;;;;;;5102411;28;20579;-81
2021/12/03 03:35:45;;;;;;;12.67;7.20;;;;;;;;;;5102882;28;20456;-80
2021/12/03 03:38:11;;;;;;;14.07;6.87;;;-0.80;99.90;;;;;;5101854;28;20444;-81
2021/12/03 03:40:38;;;;;;;13.17;7.23;;;;;;;;;;5101661;28;20538;-81
2021/12/03 03:43:06;;;;;;;17.23;9.47;;;-0.90;99.90;;;;;;5102130;28;20796;-81
2021/12/03 03:45:32;;;;;;;17.40;7.40;;;-0.80;99.90;;;;;;5102089;28;20422;-81
2021/12/03 03:47:58;;;;;;;15.47;7.37;;;;;;;;;;5101865;28;20418;-82
2021/12/03 03:50:25;;;;;;;18.57;9.67;;;-0.80;99.90;;;;;;5103142;28;20413;-82
2021/12/03 03:52:53;;;;;;;18.00;8.23;;;-0.80;99.90;;;;;;5101373;28;20491;-81
2021/12/03 03:55:20;;;;;;;10.40;6.77;;;-0.80;99.90;;;;;;5101041;28;20523;-81
2021/12/03 03:57:47;;;;;;;16.47;8.13;;;0.20;99.90;;;;;;5101869;28;20426;-82
2021/12/03 04:00:20;;;;;;;16.33;9.07;;;-0.80;99.90;;;;;;5103429;28;20502;-82
2021/12/03 04:02:46;;;;;;;24.47;10.10;;;0.60;99.90;;;;;;5102254;28;20790;-82
2021/12/03 04:05:12;;;;;;;16.37;7.63;;;;;;;;;;5101814;28;20486;-81
2021/12/03 04:07:39;;;;;;;11.73;6.93;;;;;;;;;;5102637;28;20406;-82
2021/12/03 04:10:06;;;;;;;7.13;4.67;;;-0.90;99.90;;;;;;5102974;28;20498;-82
2021/12/03 04:12:32;;;;;;;11.30;6.37;;;-1.10;99.90;;;;;;5101858;28;20409;-82
2021/12/03 04:14:58;;;;;;;6.47;4.70;;;-1.10;99.90;;;;;;5102266;28;20418;-82
2021/12/03 04:17:24;;;;;;;5.73;4.07;;;-1.20;99.90;;;;;;5102927;28;20455;-82
2021/12/03 04:19:50;;;;;;;10.63;5.17;;;;;;;;;;5103090;28;20246;-82
2021/12/03 04:22:18;;;;;;;8.23;5.60;;;;;;;;;;5102118;28;20521;-82
2021/12/03 04:24:44;;;;;;;5.93;4.53;;;;;;;;;;5101445;28;20485;-82
2021/12/03 04:27:10;;;;;;;8.43;5.67;;;;;;;;;;5102299;28;20394;-82
2021/12/03 04:29:37;;;;;;;6.27;4.20;;;;;;;;;;5103622;28;20816;-83
2021/12/03 04:32:03;;;;;;;4.43;3.60;;;-1.20;99.90;;;;;;5101426;28;20779;-82
2021/12/03 04:34:29;;;;;;;5.37;3.80;;;-1.20;99.90;;;;;;5101819;28;20500;-82
2021/12/03 04:36:54;;;;;;;5.57;4.50;;;-1.20;99.90;;;;;;5102716;28;21004;-82
2021/12/03 04:39:20;;;;;;;6.57;4.77;;;0.80;99.90;;;;;;5100871;28;20240;-83
2021/12/03 04:41:46;;;;;;;5.57;4.30;;;-1.20;99.90;;;;;;5102086;28;20203;-83
2021/12/03 04:44:11;;;;;;;7.07;4.70;;;-1.10;99.90;;;;;;5101355;28;20192;-82
2021/12/03 04:46:37;;;;;;;5.80;4.80;;;-1.20;99.90;;;;;;5101418;28;20285;-83
2021/12/03 04:49:03;;;;;;;6.93;5.47;;;-1.20;99.90;;;;;;5101901;28;20183;-83
2021/12/03 04:51:28;;;;;;;5.83;4.83;;;-1.20;99.90;;;;;;5103581;28;20178;-83
2021/12/03 04:53:54;;;;;;;6.93;5.30;;;-1.20;99.90;;;;;;5103107;28;20230;-83
2021/12/03 04:56:20;;;;;;;6.80;5.40;;;-1.20;99.90;;;;;;5106136;28;20200;-82
2021/12/03 04:58:46;;;;;;;7.13;5.67;;;-0.90;99.90;;;;;;5106949;28;20175;-83
2021/12/03 05:01:11;;;;;;;8.00;5.60;;;-1.20;99.90;;;;;;5101452;28;20214;-83
2021/12/03 05:03:37;;;;;;;6.53;4.90;;;0.20;99.90;;;;;;5102380;28;20195;-83
2021/12/03 05:06:04;;;;;;;6.87;5.33;;;-1.20;99.90;;;;;;5100913;28;20265;-83
2021/12/03 05:08:30;;;;;;;8.00;5.30;;;0.00;99.90;;;;;;5100892;28;20538;-82
2021/12/03 05:10:57;;;;;;;6.80;4.63;;;-1.20;99.90;;;;;;5100436;28;20430;-82
2021/12/03 05:13:35;;;;;;;7.07;5.57;;;-1.30;99.90;;;;;;5101376;28;20467;-83
2021/12/03 05:16:02;;;;;;;6.90;5.53;;;-1.30;99.90;;;;;;5104331;28;20449;-82
2021/12/03 05:18:29;;;;;;;6.73;5.20;;;-1.20;99.90;;;;;;5104815;28;20422;-83
2021/12/03 05:20:58;;;;;;;7.37;4.90;;;-1.20;99.90;;;;;;5103493;28;20406;-82
2021/12/03 05:23:25;;;;;;;8.37;5.83;;;-1.10;99.90;;;;;;5104013;28;20438;-83
2021/12/03 05:25:52;;;;;;;7.67;6.30;;;-1.20;99.90;;;;;;5106135;28;20463;-82
2021/12/03 05:28:18;;;;;;;7.43;5.53;;;-1.10;99.90;;;;;;5106147;28;20439;-82
2021/12/03 05:30:44;;;;;;;10.10;5.97;;;-1.10;99.90;;;;;;5104784;28;20408;-83
2021/12/03 05:33:10;;;;;;;12.50;7.40;;;-1.10;99.90;;;;;;5103262;28;20424;-82
2021/12/03 05:35:36;;;;;;;11.23;6.20;;;-1.10;99.90;;;;;;5104256;28;20464;-82
2021/12/03 05:38:03;;;;;;;9.73;6.40;;;0.10;99.90;;;;;;5106115;28;20405;-82
2021/12/03 05:40:30;;;;;;;10.70;5.70;;;-1.10;99.90;;;;;;5107290;28;20433;-82
2021/12/03 05:42:56;;;;;;;14.83;7.40;;;;;;;;;;5103671;28;20433;-82
2021/12/03 05:45:28;;;;;;;15.17;8.80;;;-1.10;99.90;;;;;;5105089;28;20394;-82
2021/12/03 05:47:55;;;;;;;12.00;7.10;;;-1.10;99.90;;;;;;5104238;28;20417;-83
2021/12/03 05:50:22;;;;;;;10.70;6.80;;;-1.20;99.90;;;;;;5105106;28;20433;-82
2021/12/03 05:52:49;;;;;;;9.10;6.53;;;-1.10;99.90;;;;;;5104143;28;20452;-83
2021/12/03 05:55:15;;;;;;;10.70;7.10;;;-0.50;99.90;;;;;;5103430;28;20438;-82
2021/12/03 05:57:43;;;;;;;12.67;7.33;;;-0.80;99.90;;;;;;5103333;28;20424;-82
2021/12/03 06:00:15;;;;;;;11.50;6.17;;;-1.10;99.90;;;;;;5103171;28;20413;-83
2021/12/03 06:02:42;;;;;;;12.93;7.17;;;-1.20;99.90;;;;;;5103525;28;20930;-83
2021/12/03 06:05:08;;;;;;;8.77;6.37;;;0.40;99.90;;;;;;5103435;28;20424;-82
2021/12/03 06:07:34;;;;;;;13.53;9.27;;;;;;;;;;5102707;28;20412;-83
2021/12/03 06:10:00;;;;;;;5.83;5.20;;;-1.20;99.90;;;;;;5101495;28;20457;-83
2021/12/03 06:12:25;;;;;;;11.13;6.53;;;-1.20;99.90;;;;;;5103339;28;20403;-83
2021/12/03 06:14:51;;;;;;;10.00;6.20;;;-0.20;99.90;;;;;;5104557;28;20537;-83
2021/12/03 06:17:17;;;;;;;8.17;6.43;;;-1.30;99.90;;;;;;5106384;28;20562;-82
2021/12/03 06:19:43;;;;;;;6.17;5.13;;;-1.20;99.90;;;;;;5103471;28;20179;-82
2021/12/03 06:22:10;;;;;;;10.70;7.70;;;-1.30;99.90;;;;;;5105065;28;20176;-82
2021/12/03 06:24:38;;;;;;;9.17;6.30;;;0.50;99.90;;;;;;5103702;28;20921;-83
2021/12/03 06:27:05;;;;;;;7.63;6.00;;;-1.30;99.90;;;;;;5101222;28;20417;-82
2021/12/03 06:29:30;;;;;;;7.87;5.97;;;-1.30;99.90;;;;;;5101065;28;20409;-82
2021/12/03 06:31:56;;;;;;;7.07;5.70;;;-1.30;99.90;;;;;;5101810;28;20778;-82
2021/12/03 08:11:25;;;;;;;23.17;11.83;;;-0.60;99.90;;;;;;5116893;27;20272;-80
2021/12/03 08:13:51;;;;;;;22.37;11.93;;;-0.40;99.90;;;;;;5116089;28;20864;-80
2021/12/03 08:16:16;;;;;;;16.00;8.73;;;-0.20;99.90;;;;;;5114626;28;20183;-80
2021/12/03 08:18:42;;;;;;;7.43;5.07;;;-0.10;99.90;;;;;;5116742;28;20175;-80
2021/12/03 08:21:07;;;;;;;9.03;5.80;;;0.10;99.90;;;;;;5116475;28;20264;-80
2021/12/03 08:23:33;;;;;;;7.67;5.13;;;0.20;99.90;;;;;;5115002;28;20335;-80
2021/12/03 08:25:59;;;;;;;5.93;5.30;;;0.80;99.90;;;;;;5114973;28;20175;-80
2021/12/03 08:28:25;;;;;;;6.07;5.17;;;1.20;99.90;;;;;;5115065;28;20171;-80
2021/12/03 08:30:50;;;;;;;4.83;4.30;;;1.30;99.90;;;;;;5115105;28;20213;-80
2021/12/03 08:33:17;;;;;;;10.20;6.47;;;1.10;99.90;;;;;;5114180;28;20191;-80
2021/12/03 08:35:42;;;;;;;11.80;7.40;;;0.90;99.90;;;;;;5114455;28;20214;-80
2021/12/03 08:38:09;;;;;;;12.40;7.33;;;0.80;99.90;;;;;;5115710;28;20414;-80
2021/12/03 08:40:35;;;;;;;11.30;7.17;;;0.60;99.90;;;;;;5116699;28;20175;-80
2021/12/03 08:43:01;;;;;;;14.00;8.83;;;0.80;99.90;;;;;;5113178;28;20516;-80
2021/12/03 08:45:27;;;;;;;26.57;15.10;;;1.00;99.90;;;;;;5113020;28;20456;-80
2021/12/03 08:48:02;;;;;;;23.03;13.47;;;1.40;99.90;;;;;;5113954;28;20179;-80
2021/12/03 08:50:34;;;;;;;22.57;12.83;;;1.90;99.90;;;;;;5114976;28;20182;-81
2021/12/03 08:53:10;;;;;;;12.83;8.30;;;2.00;99.90;;;;;;5115394;28;20432;-81
2021/12/03 08:55:38;;;;;;;8.80;6.90;;;1.40;99.90;;;;;;5114282;28;20377;-80
2021/12/03 08:58:04;;;;;;;13.10;6.97;;;1.10;99.90;;;;;;5114489;28;20406;-80
2021/12/03 09:00:30;;;;;;;7.47;4.77;;;1.80;99.90;;;;;;5114540;28;20405;-80
2021/12/03 09:02:57;;;;;;;5.53;4.97;;;3.00;99.90;;;;;;5114127;28;20429;-80
2021/12/03 09:05:28;;;;;;;7.80;6.77;;;2.00;99.90;;;;;;5113580;28;20418;-80
2021/12/03 09:07:54;;;;;;;5.53;4.93;;;1.60;99.90;;;;;;5113084;28;20409;-80
2021/12/03 09:10:20;;;;;;;9.27;5.77;;;2.90;99.90;;;;;;5112586;28;20496;-81
2021/12/03 09:12:46;;;;;;;7.83;5.60;;;;;;;;;;5115618;28;20635;-80
2021/12/03 09:15:14;;;;;;;9.83;6.80;;;0.70;99.90;;;;;;5113044;28;20402;-80
2021/12/03 09:17:57;;;;;;;9.93;6.50;;;;;;;;;;5113657;28;20168;-80
2021/12/03 09:20:32;;;;;;;8.40;5.73;;;1.10;99.90;;;;;;5113377;28;20764;-80
2021/12/03 09:23:03;;;;;;;5.47;4.90;;;2.30;99.90;;;;;;5099094;28;20426;-80
2021/12/03 09:25:34;;;;;;;5.50;4.03;;;2.50;99.90;;;;;;5100370;28;20482;-81
2021/12/03 09:28:05;;;;;;;5.40;4.17;;;2.50;99.90;;;;;;5100436;28;20410;-80
2021/12/03 09:30:40;;;;;;;4.40;4.00;;;2.80;99.90;;;;;;5102478;28;20453;-80
2021/12/03 09:33:10;;;;;;;3.83;3.53;;;3.50;99.90;;;;;;5106575;28;20417;-80
2021/12/03 09:35:41;;;;;;;3.80;3.40;;;3.70;99.90;;;;;;5100506;28;20527;-81
2021/12/03 09:38:06;;;;;;;3.37;3.07;;;3.50;99.90;;;;;;5099888;28;20494;-80
2021/12/03 09:40:35;;;;;;;3.53;3.23;;;3.00;99.90;;;;;;5098265;28;20234;-80
2021/12/03 09:43:01;;;;;;;4.43;3.00;;;2.70;99.90;;;;;;5098268;28;20204;-80
2021/12/03 09:45:29;;;;;;;4.27;2.83;;;2.20;99.90;;;;;;5099356;28;20181;-79
2021/12/03 09:47:56;;;;;;;3.33;3.03;;;2.10;99.90;;;;;;5098708;28;20642;-80
2021/12/03 09:50:21;;;;;;;5.17;3.30;;;2.20;99.90;;;;;;5098167;28;20215;-80
2021/12/03 09:53:16;;;;;;;2.83;2.60;;;1.80;99.90;;;;;;5098015;28;20560;-81
2021/12/03 09:55:42;;;;;;;3.40;3.10;;;2.40;99.90;;;;;;5098731;28;20162;-80
2021/12/03 10:12:41;;;;;;;4.53;3.57;;;1.90;99.90;;;;;;5098672;28;20476;-80
2021/12/03 10:31:42;;;;;;;5.97;3.10;;;1.90;99.90;;;;;;5098991;28;20196;-80
2021/12/03 10:34:09;;;;;;;3.80;2.90;;;1.70;99.90;;;;;;5097853;28;20195;-80
2021/12/03 11:14:53;;;;;;;4.80;3.90;;;1.30;99.90;;;;;;5100779;28;20421;-81
2021/12/03 11:30:18;;;;;;;6.83;3.53;;;2.20;99.90;;;;;;5088151;28;20450;-81
2021/12/03 12:00:00;;;;;;;3.17;2.87;;;5.40;99.90;;;;;;5094203;28;20184;-81
2021/12/03 12:10:52;;;;;;;6.90;2.73;;;4.20;99.90;;;;;;5098101;28;20230;-84
2021/12/03 14:36:48;;;;;;;4.13;3.33;;;0.70;99.90;;;;;;5079673;28;20446;-83
2021/12/03 14:50:22;;;;;;;5.20;3.90;;;0.40;99.90;;;;;;5079477;28;20430;-83
2021/12/03 14:56:00;;;;;;;9.40;6.47;;;0.20;99.90;;;;;;5079506;28;20394;-83
2021/12/03 14:59:00;;;;;;;4.90;4.40;;;0.10;99.90;;;;;;5079492;28;20891;-83
2021/12/03 15:08:54;;;;;;;5.90;4.20;;;0.00;99.90;;;;;;5079031;28;20175;-82
2021/12/03 15:22:47;;;;;;;5.30;4.07;;;-0.20;99.90;;;;;;5079471;28;20509;-82
2021/12/03 15:32:35;;;;;;;5.57;3.70;;;-0.40;99.90;;;;;;5099759;28;20493;-85
2021/12/03 16:03:31;;;;;;;12.33;5.70;;;-1.20;99.90;;;;;;5097395;28;20403;-83
2021/12/03 16:04:42;;;;;;;12.07;4.77;;;-1.30;99.90;;;;;;5096990;28;20505;-83
2021/12/03 16:23:12;;;;;;;9.20;5.27;;;-1.30;99.90;;;;;;5077764;28;20218;-84
2021/12/03 16:47:26;;;;;;;15.20;12.20;;;-1.40;99.90;;;;;;5082159;28;20426;-82
2021/12/03 16:52:32;;;;;;;12.40;9.60;;;;;;;;;;5081266;28;20420;-82
2021/12/03 16:55:01;;;;;;;9.67;8.00;;;-1.50;99.90;;;;;;5079726;28;20399;-81
2021/12/03 16:57:35;;;;;;;12.83;7.93;;;-0.10;99.90;;;;;;5080700;28;20407;-81
2021/12/03 17:00:18;;;;;;;9.17;6.63;;;0.90;99.90;;;;;;5078265;28;20465;-82
2021/12/03 17:03:09;;;;;;;7.47;5.27;;;-1.50;99.90;;;;;;5078558;28;20444;-81
2021/12/03 17:06:45;;;;;;;9.87;6.60;;;-0.60;99.90;;;;;;5079633;28;20411;-81
2021/12/03 17:08:50;;;;;;;12.47;8.70;;;-1.50;99.90;;;;;;5080582;28;20411;-79
2021/12/03 17:14:03;;;;;;;16.57;9.80;;;-1.40;99.90;;;;;;5081119;28;20418;-81
2021/12/03 17:56:18;;;;;;;10.33;5.93;;;-2.00;99.90;;;;;;5084927;28;20422;-82
2021/12/03 17:58:46;;;;;;;12.57;7.67;;;-2.10;99.90;;;;;;5083498;28;20194;-82
2021/12/03 18:04:07;;;;;;;9.10;4.80;;;-2.00;99.90;;;;;;5084774;28;20444;-83
2021/12/03 18:09:45;;;;;;;9.87;7.00;;;-2.00;99.90;;;;;;5084446;28;20424;-82
2021/12/03 18:12:18;;;;;;;11.30;6.33;;;-1.20;99.90;;;;;;5084860;28;20429;-83
2021/12/03 18:54:46;;;;;;;7.97;5.33;;;-2.10;99.90;;;;;;5095598;28;20443;-82
2021/12/03 18:57:19;;;;;;;7.53;4.13;;;-2.10;99.90;;;;;;5095797;28;20410;-83
2021/12/03 19:02:40;;;;;;;7.43;4.70;;;-2.20;99.90;;;;;;5095252;28;20430;-83
2021/12/03 19:07:40;;;;;;;10.33;6.43;;;-2.20;99.90;;;;;;5103111;28;20930;-82
2021/12/03 19:10:11;;;;;;;8.57;4.53;;;-0.80;99.90;;;;;;5101521;28;20461;-82
2021/12/03 19:12:40;;;;;;;6.83;4.10;;;-2.20;99.90;;;;;;5101099;28;20425;-82
2021/12/03 19:15:06;;;;;;;6.53;4.80;;;-2.20;99.90;;;;;;5095718;28;20441;-82
2021/12/03 19:17:37;;;;;;;6.93;4.70;;;-2.20;99.90;;;;;;5087986;28;20460;-82
2021/12/03 19:20:07;;;;;;;7.80;6.30;;;-2.20;99.90;;;;;;5086038;28;20411;-82
2021/12/03 19:22:33;;;;;;;6.10;3.67;;;-2.20;99.90;;;;;;5091698;28;20426;-82
2021/12/03 19:24:58;;;;;;;6.90;4.17;;;-2.20;99.90;;;;;;5096818;28;20417;-82
2021/12/03 19:27:26;;;;;;;5.97;4.37;;;-2.30;99.90;;;;;;5085417;28;20179;-82
2021/12/03 19:29:58;;;;;;;5.70;3.57;;;-2.30;99.90;;;;;;5096855;28;20256;-81
2021/12/03 19:32:26;;;;;;;4.17;3.30;;;-2.30;99.90;;;;;;5085513;28;20450;-81
2021/12/03 19:34:52;;;;;;;5.17;3.53;;;-2.40;99.90;;;;;;5088477;28;20999;-82
2021/12/03 19:37:19;;;;;;;5.20;4.10;;;-2.40;99.90;;;;;;5087449;28;20415;-81
2021/12/03 19:39:45;;;;;;;5.57;3.43;;;-2.60;99.90;;;;;;5092178;28;20411;-81
2021/12/03 19:42:14;;;;;;;6.03;3.83;;;-2.60;99.90;;;;;;5097964;28;20423;-82
2021/12/03 19:44:44;;;;;;;7.10;4.07;;;-1.00;99.90;;;;;;5089882;28;20450;-82
2021/12/03 19:47:12;;;;;;;4.47;3.30;;;-2.60;99.90;;;;;;5085459;28;20962;-82
2021/12/03 19:52:24;;;;;;;6.67;4.13;;;-2.50;99.90;;;;;;5092352;28;20479;-82
2021/12/03 19:54:53;;;;;;;7.13;4.33;;;-2.50;99.90;;;;;;5095540;28;20460;-82
2021/12/03 19:57:19;;;;;;;7.27;4.47;;;-2.50;99.90;;;;;;5103028;28;20398;-82
2021/12/03 19:59:46;;;;;;;6.67;4.00;;;-2.50;99.90;;;;;;5087283;28;20415;-81
2021/12/03 20:02:12;;;;;;;7.83;4.37;;;-2.50;99.90;;;;;;5091136;28;20425;-81
2021/12/03 20:04:37;;;;;;;9.00;4.10;;;-2.60;99.90;;;;;;5086581;28;20196;-82
2021/12/03 20:07:04;;;;;;;11.53;6.20;;;;;;;;;;5087555;28;20237;-81
2021/12/03 20:09:58;;;;;;;6.03;3.67;;;;;;;;;;5082796;28;20188;-81
2021/12/03 20:12:25;;;;;;;10.67;5.00;;;-2.70;99.90;;;;;;5094808;28;20409;-82
2021/12/03 20:14:51;;;;;;;5.17;3.80;;;-2.70;99.90;;;;;;5095590;28;20496;-81
2021/12/03 20:19:50;;;;;;;5.40;3.23;;;-2.70;99.90;;;;;;5095047;28;20420;-82
2021/12/03 20:22:21;;;;;;;6.47;3.77;;;-2.70;99.90;;;;;;5098191;28;20415;-82
2021/12/03 20:27:43;;;;;;;5.67;3.83;;;-1.10;99.90;;;;;;5099436;28;20414;-81
2021/12/03 20:30:14;;;;;;;7.13;4.33;;;-2.70;99.90;;;;;;5080807;28;20948;-82
2021/12/03 20:32:48;;;;;;;6.47;3.87;;;-2.70;99.90;;;;;;5085059;28;20455;-80
2021/12/03 20:37:49;;;;;;;5.37;3.50;;;-2.70;99.90;;;;;;5101441;28;20892;-80
2021/12/03 20:40:27;;;;;;;8.23;4.80;;;-2.70;99.90;;;;;;5100795;28;20444;-81
2021/12/03 20:48:50;;;;;;;6.73;3.43;;;-2.70;99.90;;;;;;5101272;28;20403;-81
2021/12/03 20:53:54;;;;;;;7.83;4.70;;;-2.60;99.90;;;;;;5101877;28;20782;-80
2021/12/03 21:09:51;;;;;;;46.83;14.20;;;-2.60;99.90;;;;;;5102618;28;20478;-81
2021/12/03 21:14:51;;;;;;;50.77;15.43;;;-2.60;99.90;;;;;;5101206;28;20428;-81
2021/12/03 21:17:33;;;;;;;23.97;10.10;;;-2.60;99.90;;;;;;5102434;28;20391;-80
2021/12/03 21:20:14;;;;;;;34.40;12.60;;;-2.60;99.90;;;;;;5102633;28;20422;-81
2021/12/03 21:22:44;;;;;;;23.63;9.00;;;-2.60;99.90;;;;;;5104801;28;20410;-82
2021/12/03 21:25:13;;;;;;;40.77;14.57;;;-2.60;99.90;;;;;;5106838;28;20455;-79
2021/12/03 21:27:42;;;;;;;22.23;9.00;;;-2.00;99.90;;;;;;5105359;28;20505;-80
2021/12/03 21:30:30;;;;;;;25.70;8.20;;;-2.60;99.90;;;;;;5104208;28;20457;-80
2021/12/03 21:33:02;;;;;;;19.43;7.97;;;-2.60;99.90;;;;;;5102302;28;20446;-80
2021/12/03 21:43:41;;;;;;;7.07;3.33;;;-2.50;99.90;;;;;;5104839;28;20476;-80
2021/12/03 21:46:06;;;;;;;26.53;11.17;;;-2.40;99.90;;;;;;5103260;28;20947;-80
2021/12/03 21:48:32;;;;;;;22.53;8.50;;;-2.40;99.90;;;;;;5104773;28;20634;-80
2021/12/03 21:50:58;;;;;;;12.47;5.67;;;-2.40;99.90;;;;;;5103652;28;20206;-80
2021/12/03 21:53:23;;;;;;;18.80;8.90;;;-2.50;99.90;;;;;;5105102;28;20181;-80
2021/12/03 21:55:49;;;;;;;10.67;5.37;;;-1.40;99.90;;;;;;5104838;28;20168;-81
2021/12/03 21:58:16;;;;;;;18.90;8.23;;;-2.50;99.90;;;;;;5104179;28;20172;-80
2021/12/03 22:00:42;;;;;;;12.87;5.37;;;;;;;;;;5103519;28;20203;-80
2021/12/03 22:03:08;;;;;;;9.27;4.90;;;-2.50;99.90;;;;;;5102705;28;20999;-80
2021/12/03 22:05:34;;;;;;;11.87;5.47;;;-2.50;99.90;;;;;;5104467;28;20426;-80
2021/12/03 22:08:00;;;;;;;5.87;4.07;;;-2.50;99.90;;;;;;5103974;28;20203;-79
2021/12/03 22:10:26;;;;;;;4.83;3.03;;;-2.50;99.90;;;;;;5102476;28;20551;-80
2021/12/03 22:12:52;;;;;;;4.67;3.53;;;-2.50;99.90;;;;;;5103440;28;20828;-80
2021/12/03 22:15:17;;;;;;;5.63;3.23;;;-2.50;99.90;;;;;;5102543;28;20184;-80
2021/12/03 22:17:43;;;;;;;6.03;3.77;;;-2.50;99.90;;;;;;5102769;28;20267;-80
2021/12/03 22:20:09;;;;;;;5.03;3.37;;;-2.50;99.90;;;;;;5104189;28;20177;-80
2021/12/03 22:22:35;;;;;;;7.47;2.70;;;-2.50;99.90;;;;;;5103409;28;20644;-81
2021/12/03 22:25:01;;;;;;;4.00;2.73;;;;;;;;;;5101273;28;20175;-80
2021/12/03 22:27:27;;;;;;;4.83;3.10;;;-2.50;99.90;;;;;;5102512;28;20406;-80
2021/12/03 22:29:53;;;;;;;4.63;2.93;;;-2.50;99.90;;;;;;5101354;28;20467;-81
2021/12/03 22:32:18;;;;;;;3.43;2.23;;;-2.50;99.90;;;;;;5105270;28;20176;-81
2021/12/03 22:34:44;;;;;;;3.07;2.13;;;0.40;99.90;;;;;;5104724;28;20215;-81
2021/12/03 22:37:10;;;;;;;3.20;2.30;;;-2.40;99.90;;;;;;5105549;28;20203;-81
2021/12/03 22:39:36;;;;;;;3.60;2.43;;;-2.40;99.90;;;;;;5103153;28;20221;-81
2021/12/03 22:42:03;;;;;;;5.77;2.23;;;-2.40;99.90;;;;;;5102344;28;20205;-81
2021/12/03 22:44:29;;;;;;;6.60;2.73;;;-2.40;99.90;;;;;;5100795;28;20467;-80
2021/12/03 22:47:16;;;;;;;4.37;2.47;;;-2.40;99.90;;;;;;5100866;28;20415;-81
2021/12/03 22:52:15;;;;;;;3.60;2.63;;;-2.30;99.90;;;;;;5105087;28;20417;-81
2021/12/03 22:54:42;;;;;;;4.87;2.20;;;-2.30;99.90;;;;;;5102788;28;20527;-81
2021/12/03 22:57:10;;;;;;;3.67;2.70;;;-2.30;99.90;;;;;;5104791;28;20410;-80
2021/12/03 22:59:36;;;;;;;9.63;5.90;;;-2.30;99.90;;;;;;5104803;28;20398;-80
2021/12/03 23:02:04;;;;;;;6.10;4.70;;;-2.20;99.90;;;;;;5102727;28;20410;-80